Jaguar Max — C6ZD7 — position and weather

sailwx.info

Track history (hours):
 
Tides and Currents Weather Stations Pressure Air Temp Water Temp Dewpoint Dewpoint Depression Visibility Wind Speed Wind Dir Waves Ship Positions

Jaguar Max

Last reported at 2018-Jan-22 12:07 UTC. Time now 2018-Jan-22 14:09 UTC.
Position N 34°38' E 025°13'.

Length 229 m; draft 12.1 m.

Type: Cargo ship. MMSI: 311053300.

Date/timePositionNaut miles runAvg speedWind from/ knotsBaromVisibWave heightAir tempDewpointWater temp
2018-Jan-22 12:07N 34°38' E 025°13'213.5
2018-Jan-22 11:56N 34°38' E 025°10'613.8
2018-Jan-22 11:29N 34°38' E 025°03'51113.7
2018-Jan-20 22:12N 36°09' E 014°46'313.2
2018-Jan-20 22:00N 36°10' E 014°43'612.8
2018-Jan-20 21:30N 36°11' E 014°35'712.8
2018-Jan-20 21:00N 36°12' E 014°27'713.7
2018-Jan-20 20:30N 36°14' E 014°19'713.6
2018-Jan-20 20:00N 36°16' E 014°11'713.4
2018-Jan-20 19:30N 36°18' E 014°03'713.6
2018-Jan-20 18:59N 36°21' E 013°55'713.5
2018-Jan-20 18:30N 36°23' E 013°47'  
Track history (hours):
 
Tides and Currents Weather Stations Pressure Air Temp Water Temp Dewpoint Dewpoint Depression Visibility Wind Speed Wind Dir Waves Ship Positions

Jaguar Max

Last reported at 2018-Jan-22 12:07 UTC. Time now 2018-Jan-22 14:09 UTC.
Position N 34°38' E 025°13'.

Length 229 m; draft 12.1 m.

Type: Cargo ship. MMSI: 311053300.

Date/timePositionNaut miles runAvg speedWind from/ knotsBaromVisibWave heightAir tempDewpointWater temp
2018-Jan-22 12:07N 34°38' E 025°13'213.5
2018-Jan-22 11:56N 34°38' E 025°10'613.8
2018-Jan-22 11:29N 34°38' E 025°03'51113.7
2018-Jan-20 22:12N 36°09' E 014°46'313.2
2018-Jan-20 22:00N 36°10' E 014°43'612.8
2018-Jan-20 21:30N 36°11' E 014°35'712.8
2018-Jan-20 21:00N 36°12' E 014°27'713.7
2018-Jan-20 20:30N 36°14' E 014°19'713.6
2018-Jan-20 20:00N 36°16' E 014°11'713.4
2018-Jan-20 19:30N 36°18' E 014°03'713.6
2018-Jan-20 18:59N 36°21' E 013°55'713.5
2018-Jan-20 18:30N 36°23' E 013°47'  

Dump ship's entire track history